DNKN/KAN METAR and TAF weather

Enter ICAO airport designator
Station Type Date Time Source
DNKN METAR 2022/07/01 01:00 UTC NOAA

DNKN 010100Z 23004KT 9999 TS FEW009 FEW020CB 23/21 Q1014 NOSIG


Station Type Date Time Source
DNKN Decoded METAR 2022/07/01 01:00 UTC NOAA

Kano, Nigeria (DNKN) 12-03N 008-32E 481M
Jun 30, 2022 - 09:00 PM EDT / 2022.07.01 0100 UTC
Wind: from the SW (230 degrees) at 5 MPH (4 KT):0
Visibility: greater than 7 mile(s):0
Sky conditions: mostly clear
Weather: thunder; Cumulonimbus clouds observed
Temperature: 73 F (23 C)
Dew Point: 69 F (21 C)
Relative Humidity: 88%
Pressure (altimeter): 29.94 in. Hg (1014 hPa)
ob: DNKN 010100Z 23004KT 9999 TS FEW009 FEW020CB 23/21 Q1014 NOSIG
cycle: 1

Station Type Date Time Source
DNKN TAF 2022/06/30 18:34 UTC NOAA

TAF DNKN 301705Z 3018/0124 12023G38KT 8000 -TSRA SQ BKN010 FEW019CB
TEMPO 3018/3021 15010KT 4000 TRSA
BECMG 3021/3023 CAVOK
BECMG 0108/0110 23009KT

Example: see airport list